sensor_id;sensor_type;location;lat;lon;timestamp;P1;durP1;ratioP1;P2;durP2;ratioP2
20185;SDS011;10252;48.792;8.582;2023-07-13T00:02:09;2.55;;;1.60;;
20185;SDS011;10252;48.792;8.582;2023-07-13T00:07:10;2.65;;;1.70;;
20185;SDS011;10252;48.792;8.582;2023-07-13T00:12:48;3.00;;;1.58;;
20185;SDS011;10252;48.792;8.582;2023-07-13T00:17:42;4.60;;;2.00;;
20185;SDS011;10252;48.792;8.582;2023-07-13T00:22:48;4.40;;;1.70;;
20185;SDS011;10252;48.792;8.582;2023-07-13T00:27:53;8.88;;;1.75;;
20185;SDS011;10252;48.792;8.582;2023-07-13T00:32:55;2.50;;;1.70;;
20185;SDS011;10252;48.792;8.582;2023-07-13T00:37:57;2.28;;;1.88;;
20185;SDS011;10252;48.792;8.582;2023-07-13T00:42:59;3.05;;;1.70;;
20185;SDS011;10252;48.792;8.582;2023-07-13T00:48:00;2.25;;;1.58;;
20185;SDS011;10252;48.792;8.582;2023-07-13T00:53:01;3.00;;;1.73;;
20185;SDS011;10252;48.792;8.582;2023-07-13T00:58:04;1.80;;;1.55;;
20185;SDS011;10252;48.792;8.582;2023-07-13T01:03:07;2.78;;;1.70;;
20185;SDS011;10252;48.792;8.582;2023-07-13T01:08:10;3.38;;;1.70;;
20185;SDS011;10252;48.792;8.582;2023-07-13T01:13:11;3.50;;;1.73;;
20185;SDS011;10252;48.792;8.582;2023-07-13T01:18:14;4.88;;;1.60;;
20185;SDS011;10252;48.792;8.582;2023-07-13T01:23:16;3.95;;;1.60;;
20185;SDS011;10252;48.792;8.582;2023-07-13T01:28:19;2.13;;;1.80;;
20185;SDS011;10252;48.792;8.582;2023-07-13T01:33:21;2.47;;;1.70;;
20185;SDS011;10252;48.792;8.582;2023-07-13T01:38:24;4.63;;;1.67;;
20185;SDS011;10252;48.792;8.582;2023-07-13T01:43:26;2.45;;;1.70;;
20185;SDS011;10252;48.792;8.582;2023-07-13T01:48:27;4.72;;;2.30;;
20185;SDS011;10252;48.792;8.582;2023-07-13T01:53:29;4.47;;;1.80;;
20185;SDS011;10252;48.792;8.582;2023-07-13T01:58:30;4.70;;;2.10;;
20185;SDS011;10252;48.792;8.582;2023-07-13T02:03:31;3.58;;;2.30;;
20185;SDS011;10252;48.792;8.582;2023-07-13T02:08:33;3.67;;;1.88;;
20185;SDS011;10252;48.792;8.582;2023-07-13T02:13:34;2.70;;;2.10;;
20185;SDS011;10252;48.792;8.582;2023-07-13T02:18:36;4.85;;;1.83;;
20185;SDS011;10252;48.792;8.582;2023-07-13T02:23:38;5.40;;;1.88;;
20185;SDS011;10252;48.792;8.582;2023-07-13T02:28:39;4.78;;;2.10;;
20185;SDS011;10252;48.792;8.582;2023-07-13T02:33:41;4.60;;;2.20;;
20185;SDS011;10252;48.792;8.582;2023-07-13T02:38:42;3.53;;;1.80;;
20185;SDS011;10252;48.792;8.582;2023-07-13T02:43:44;2.65;;;1.77;;
20185;SDS011;10252;48.792;8.582;2023-07-13T02:48:45;3.92;;;1.77;;
20185;SDS011;10252;48.792;8.582;2023-07-13T02:53:47;3.28;;;1.83;;
20185;SDS011;10252;48.792;8.582;2023-07-13T02:58:49;3.83;;;1.90;;
20185;SDS011;10252;48.792;8.582;2023-07-13T03:03:51;6.32;;;2.10;;
20185;SDS011;10252;48.792;8.582;2023-07-13T03:08:53;4.53;;;2.25;;
20185;SDS011;10252;48.792;8.582;2023-07-13T03:13:57;2.35;;;1.92;;
20185;SDS011;10252;48.792;8.582;2023-07-13T03:19:00;4.95;;;2.05;;
20185;SDS011;10252;48.792;8.582;2023-07-13T03:24:02;2.42;;;2.10;;
20185;SDS011;10252;48.792;8.582;2023-07-13T03:29:04;3.08;;;1.80;;
20185;SDS011;10252;48.792;8.582;2023-07-13T03:34:05;3.50;;;2.00;;
20185;SDS011;10252;48.792;8.582;2023-07-13T03:39:09;5.38;;;2.05;;
20185;SDS011;10252;48.792;8.582;2023-07-13T03:44:23;3.90;;;2.17;;
20185;SDS011;10252;48.792;8.582;2023-07-13T03:49:28;4.72;;;2.00;;
20185;SDS011;10252;48.792;8.582;2023-07-13T03:54:30;5.10;;;2.50;;
20185;SDS011;10252;48.792;8.582;2023-07-13T03:59:34;3.35;;;2.20;;
20185;SDS011;10252;48.792;8.582;2023-07-13T04:04:36;4.35;;;2.72;;
20185;SDS011;10252;48.792;8.582;2023-07-13T04:09:40;3.47;;;1.92;;
20185;SDS011;10252;48.792;8.582;2023-07-13T04:14:44;4.55;;;2.38;;
20185;SDS011;10252;48.792;8.582;2023-07-13T04:19:46;5.18;;;2.30;;
20185;SDS011;10252;48.792;8.582;2023-07-13T04:24:49;4.22;;;2.63;;
20185;SDS011;10252;48.792;8.582;2023-07-13T04:29:51;5.22;;;2.63;;
20185;SDS011;10252;48.792;8.582;2023-07-13T04:34:52;6.00;;;2.35;;
20185;SDS011;10252;48.792;8.582;2023-07-13T04:39:56;5.78;;;2.88;;
20185;SDS011;10252;48.792;8.582;2023-07-13T04:44:58;5.05;;;2.80;;
20185;SDS011;10252;48.792;8.582;2023-07-13T04:49:59;3.05;;;2.25;;
20185;SDS011;10252;48.792;8.582;2023-07-13T04:55:01;3.65;;;2.53;;
20185;SDS011;10252;48.792;8.582;2023-07-13T05:00:02;8.30;;;2.97;;
20185;SDS011;10252;48.792;8.582;2023-07-13T05:05:06;3.58;;;2.30;;
20185;SDS011;10252;48.792;8.582;2023-07-13T05:10:09;4.78;;;2.35;;
20185;SDS011;10252;48.792;8.582;2023-07-13T05:15:10;8.20;;;3.92;;
20185;SDS011;10252;48.792;8.582;2023-07-13T05:20:12;4.40;;;2.70;;
20185;SDS011;10252;48.792;8.582;2023-07-13T05:25:14;4.03;;;2.60;;
20185;SDS011;10252;48.792;8.582;2023-07-13T05:30:16;3.60;;;2.30;;
20185;SDS011;10252;48.792;8.582;2023-07-13T05:35:17;2.75;;;1.90;;
20185;SDS011;10252;48.792;8.582;2023-07-13T05:40:19;2.92;;;2.00;;
20185;SDS011;10252;48.792;8.582;2023-07-13T05:45:20;5.30;;;2.25;;
20185;SDS011;10252;48.792;8.582;2023-07-13T05:50:22;5.38;;;2.63;;
20185;SDS011;10252;48.792;8.582;2023-07-13T05:55:23;3.67;;;2.20;;
20185;SDS011;10252;48.792;8.582;2023-07-13T06:00:25;1.98;;;1.50;;
20185;SDS011;10252;48.792;8.582;2023-07-13T06:05:27;3.67;;;1.90;;
20185;SDS011;10252;48.792;8.582;2023-07-13T06:10:29;2.35;;;2.00;;
20185;SDS011;10252;48.792;8.582;2023-07-13T06:15:30;3.20;;;2.00;;
20185;SDS011;10252;48.792;8.582;2023-07-13T06:20:33;3.67;;;1.63;;
20185;SDS011;10252;48.792;8.582;2023-07-13T06:25:35;3.97;;;1.67;;
20185;SDS011;10252;48.792;8.582;2023-07-13T06:30:39;3.13;;;1.50;;
20185;SDS011;10252;48.792;8.582;2023-07-13T06:35:41;2.15;;;1.30;;
20185;SDS011;10252;48.792;8.582;2023-07-13T06:40:43;3.92;;;1.42;;
20185;SDS011;10252;48.792;8.582;2023-07-13T06:45:45;1.95;;;1.40;;
20185;SDS011;10252;48.792;8.582;2023-07-13T06:50:49;1.60;;;1.50;;
20185;SDS011;10252;48.792;8.582;2023-07-13T06:55:52;2.75;;;1.38;;
20185;SDS011;10252;48.792;8.582;2023-07-13T07:00:53;3.03;;;1.52;;
20185;SDS011;10252;48.792;8.582;2023-07-13T07:06:00;2.70;;;1.52;;
20185;SDS011;10252;48.792;8.582;2023-07-13T07:11:01;2.25;;;1.52;;
20185;SDS011;10252;48.792;8.582;2023-07-13T07:16:03;2.17;;;1.20;;
20185;SDS011;10252;48.792;8.582;2023-07-13T07:21:05;3.60;;;1.40;;
20185;SDS011;10252;48.792;8.582;2023-07-13T07:26:06;1.50;;;1.38;;
20185;SDS011;10252;48.792;8.582;2023-07-13T07:31:10;3.38;;;1.45;;
20185;SDS011;10252;48.792;8.582;2023-07-13T07:36:12;2.22;;;1.10;;
20185;SDS011;10252;48.792;8.582;2023-07-13T07:41:13;3.70;;;1.00;;
20185;SDS011;10252;48.792;8.582;2023-07-13T07:46:15;1.83;;;1.10;;
20185;SDS011;10252;48.792;8.582;2023-07-13T07:51:17;2.38;;;1.30;;
20185;SDS011;10252;48.792;8.582;2023-07-13T07:56:18;3.08;;;1.20;;
20185;SDS011;10252;48.792;8.582;2023-07-13T08:01:20;3.92;;;1.50;;
20185;SDS011;10252;48.792;8.582;2023-07-13T08:06:21;2.55;;;1.00;;
20185;SDS011;10252;48.792;8.582;2023-07-13T08:11:23;6.97;;;1.52;;
20185;SDS011;10252;48.792;8.582;2023-07-13T08:16:25;5.65;;;1.48;;
20185;SDS011;10252;48.792;8.582;2023-07-13T08:21:27;5.85;;;1.48;;
20185;SDS011;10252;48.792;8.582;2023-07-13T08:26:28;2.70;;;1.02;;
20185;SDS011;10252;48.792;8.582;2023-07-13T08:31:30;2.13;;;1.10;;
20185;SDS011;10252;48.792;8.582;2023-07-13T08:36:32;5.00;;;1.80;;
20185;SDS011;10252;48.792;8.582;2023-07-13T08:41:34;2.60;;;1.00;;
20185;SDS011;10252;48.792;8.582;2023-07-13T08:46:36;1.55;;;1.27;;
20185;SDS011;10252;48.792;8.582;2023-07-13T08:56:44;3.40;;;1.55;;
20185;SDS011;10252;48.792;8.582;2023-07-13T09:17:33;5.10;;;1.10;;
20185;SDS011;10252;48.792;8.582;2023-07-13T09:22:36;2.90;;;1.05;;
20185;SDS011;10252;48.792;8.582;2023-07-13T09:27:39;3.90;;;1.27;;
20185;SDS011;10252;48.792;8.582;2023-07-13T09:32:42;3.10;;;1.33;;
20185;SDS011;10252;48.792;8.582;2023-07-13T09:37:45;4.88;;;1.42;;
20185;SDS011;10252;48.792;8.582;2023-07-13T09:42:47;1.98;;;1.08;;
20185;SDS011;10252;48.792;8.582;2023-07-13T09:47:48;6.68;;;1.38;;
20185;SDS011;10252;48.792;8.582;2023-07-13T09:53:00;3.92;;;1.30;;
20185;SDS011;10252;48.792;8.582;2023-07-13T09:58:23;2.83;;;1.50;;
20185;SDS011;10252;48.792;8.582;2023-07-13T10:03:28;4.88;;;1.30;;
20185;SDS011;10252;48.792;8.582;2023-07-13T10:08:31;5.10;;;1.30;;
20185;SDS011;10252;48.792;8.582;2023-07-13T10:13:36;2.90;;;1.55;;
20185;SDS011;10252;48.792;8.582;2023-07-13T10:18:45;2.42;;;1.45;;
20185;SDS011;10252;48.792;8.582;2023-07-13T10:23:51;3.35;;;1.52;;
20185;SDS011;10252;48.792;8.582;2023-07-13T10:28:54;5.20;;;1.58;;
20185;SDS011;10252;48.792;8.582;2023-07-13T10:33:57;3.10;;;1.50;;
20185;SDS011;10252;48.792;8.582;2023-07-13T10:39:01;3.50;;;1.70;;
20185;SDS011;10252;48.792;8.582;2023-07-13T10:44:03;4.05;;;1.48;;
20185;SDS011;10252;48.792;8.582;2023-07-13T10:49:05;2.65;;;1.40;;
20185;SDS011;10252;48.792;8.582;2023-07-13T10:59:28;3.78;;;1.92;;
20185;SDS011;10252;48.792;8.582;2023-07-13T11:04:39;5.55;;;2.40;;
20185;SDS011;10252;48.792;8.582;2023-07-13T11:09:41;4.25;;;1.40;;
20185;SDS011;10252;48.792;8.582;2023-07-13T11:20:37;2.72;;;1.48;;
20185;SDS011;10252;48.792;8.582;2023-07-13T11:35:28;2.03;;;1.50;;
20185;SDS011;10252;48.792;8.582;2023-07-13T11:40:30;2.47;;;1.23;;
20185;SDS011;10252;48.792;8.582;2023-07-13T11:45:32;3.22;;;1.60;;
20185;SDS011;10252;48.792;8.582;2023-07-13T11:50:33;4.97;;;1.48;;
20185;SDS011;10252;48.792;8.582;2023-07-13T11:55:37;2.80;;;1.38;;
20185;SDS011;10252;48.792;8.582;2023-07-13T12:00:39;1.50;;;1.40;;
20185;SDS011;10252;48.792;8.582;2023-07-13T12:05:54;2.08;;;1.23;;
20185;SDS011;10252;48.792;8.582;2023-07-13T12:11:05;3.13;;;1.52;;
20185;SDS011;10252;48.792;8.582;2023-07-13T12:16:28;6.75;;;1.50;;
20185;SDS011;10252;48.792;8.582;2023-07-13T12:21:31;5.95;;;1.50;;
20185;SDS011;10252;48.792;8.582;2023-07-13T12:26:33;3.30;;;1.27;;
20185;SDS011;10252;48.792;8.582;2023-07-13T12:31:36;3.65;;;1.27;;
20185;SDS011;10252;48.792;8.582;2023-07-13T12:36:40;4.63;;;1.90;;
20185;SDS011;10252;48.792;8.582;2023-07-13T12:41:42;3.75;;;1.58;;
20185;SDS011;10252;48.792;8.582;2023-07-13T12:46:52;3.15;;;1.45;;
20185;SDS011;10252;48.792;8.582;2023-07-13T12:51:58;5.00;;;1.60;;
20185;SDS011;10252;48.792;8.582;2023-07-13T12:57:00;1.90;;;1.45;;
20185;SDS011;10252;48.792;8.582;2023-07-13T13:02:08;1.65;;;1.45;;
20185;SDS011;10252;48.792;8.582;2023-07-13T13:07:19;2.85;;;1.50;;
20185;SDS011;10252;48.792;8.582;2023-07-13T13:12:20;2.72;;;1.35;;
20185;SDS011;10252;48.792;8.582;2023-07-13T13:17:22;3.28;;;1.80;;
20185;SDS011;10252;48.792;8.582;2023-07-13T13:22:25;3.78;;;1.77;;
20185;SDS011;10252;48.792;8.582;2023-07-13T13:27:27;1.95;;;1.30;;
20185;SDS011;10252;48.792;8.582;2023-07-13T13:32:29;4.65;;;1.50;;
20185;SDS011;10252;48.792;8.582;2023-07-13T13:37:30;4.15;;;1.77;;
20185;SDS011;10252;48.792;8.582;2023-07-13T13:42:32;2.50;;;1.42;;
20185;SDS011;10252;48.792;8.582;2023-07-13T13:47:34;2.55;;;1.40;;
20185;SDS011;10252;48.792;8.582;2023-07-13T13:52:37;2.97;;;1.73;;
20185;SDS011;10252;48.792;8.582;2023-07-13T13:57:38;5.38;;;1.83;;
20185;SDS011;10252;48.792;8.582;2023-07-13T14:02:47;4.28;;;1.23;;
20185;SDS011;10252;48.792;8.582;2023-07-13T14:07:53;2.35;;;1.30;;
20185;SDS011;10252;48.792;8.582;2023-07-13T14:12:56;2.55;;;1.40;;
20185;SDS011;10252;48.792;8.582;2023-07-13T14:17:59;4.97;;;1.42;;
20185;SDS011;10252;48.792;8.582;2023-07-13T14:23:00;3.13;;;1.63;;
20185;SDS011;10252;48.792;8.582;2023-07-13T14:28:04;1.88;;;1.20;;
20185;SDS011;10252;48.792;8.582;2023-07-13T14:33:11;5.18;;;1.77;;
20185;SDS011;10252;48.792;8.582;2023-07-13T14:38:15;2.95;;;1.67;;
20185;SDS011;10252;48.792;8.582;2023-07-13T14:43:17;4.72;;;1.35;;
20185;SDS011;10252;48.792;8.582;2023-07-13T14:48:22;1.60;;;1.50;;
20185;SDS011;10252;48.792;8.582;2023-07-13T14:53:25;2.42;;;1.27;;
20185;SDS011;10252;48.792;8.582;2023-07-13T14:58:30;2.15;;;1.50;;
20185;SDS011;10252;48.792;8.582;2023-07-13T15:03:32;2.33;;;1.30;;
20185;SDS011;10252;48.792;8.582;2023-07-13T15:08:33;2.45;;;1.40;;
20185;SDS011;10252;48.792;8.582;2023-07-13T15:13:35;2.55;;;1.63;;
20185;SDS011;10252;48.792;8.582;2023-07-13T15:18:37;3.88;;;1.25;;
20185;SDS011;10252;48.792;8.582;2023-07-13T15:23:40;3.97;;;1.30;;
20185;SDS011;10252;48.792;8.582;2023-07-13T15:28:42;2.00;;;1.45;;
20185;SDS011;10252;48.792;8.582;2023-07-13T15:33:44;2.30;;;1.42;;
20185;SDS011;10252;48.792;8.582;2023-07-13T15:38:48;2.67;;;1.63;;
20185;SDS011;10252;48.792;8.582;2023-07-13T15:43:54;2.28;;;1.52;;
20185;SDS011;10252;48.792;8.582;2023-07-13T15:48:58;5.63;;;1.90;;
20185;SDS011;10252;48.792;8.582;2023-07-13T15:54:00;2.75;;;1.50;;
20185;SDS011;10252;48.792;8.582;2023-07-13T15:59:09;3.42;;;1.50;;
20185;SDS011;10252;48.792;8.582;2023-07-13T16:04:15;2.30;;;1.40;;
20185;SDS011;10252;48.792;8.582;2023-07-13T16:09:22;3.83;;;1.55;;
20185;SDS011;10252;48.792;8.582;2023-07-13T16:14:24;2.10;;;1.40;;
20185;SDS011;10252;48.792;8.582;2023-07-13T16:19:26;3.78;;;1.40;;
20185;SDS011;10252;48.792;8.582;2023-07-13T16:24:30;1.67;;;1.30;;
20185;SDS011;10252;48.792;8.582;2023-07-13T16:29:32;3.80;;;1.55;;
20185;SDS011;10252;48.792;8.582;2023-07-13T16:34:35;2.03;;;1.20;;
20185;SDS011;10252;48.792;8.582;2023-07-13T16:39:36;3.53;;;1.40;;
20185;SDS011;10252;48.792;8.582;2023-07-13T16:44:38;4.07;;;1.58;;
20185;SDS011;10252;48.792;8.582;2023-07-13T16:49:41;3.58;;;1.70;;
20185;SDS011;10252;48.792;8.582;2023-07-13T16:54:44;4.57;;;1.77;;
20185;SDS011;10252;48.792;8.582;2023-07-13T16:59:46;5.03;;;1.90;;
20185;SDS011;10252;48.792;8.582;2023-07-13T17:04:47;2.80;;;1.52;;
20185;SDS011;10252;48.792;8.582;2023-07-13T17:09:49;2.00;;;1.50;;
20185;SDS011;10252;48.792;8.582;2023-07-13T17:14:52;5.50;;;1.50;;
20185;SDS011;10252;48.792;8.582;2023-07-13T17:19:53;3.92;;;1.20;;
20185;SDS011;10252;48.792;8.582;2023-07-13T17:24:55;3.75;;;1.40;;
20185;SDS011;10252;48.792;8.582;2023-07-13T17:29:57;3.75;;;1.75;;
20185;SDS011;10252;48.792;8.582;2023-07-13T17:34:58;7.00;;;1.85;;
20185;SDS011;10252;48.792;8.582;2023-07-13T17:40:00;2.42;;;1.30;;
20185;SDS011;10252;48.792;8.582;2023-07-13T17:45:02;4.60;;;1.90;;
20185;SDS011;10252;48.792;8.582;2023-07-13T17:50:26;3.17;;;1.90;;
20185;SDS011;10252;48.792;8.582;2023-07-13T17:55:26;3.20;;;1.60;;
20185;SDS011;10252;48.792;8.582;2023-07-13T18:00:30;2.15;;;1.55;;
20185;SDS011;10252;48.792;8.582;2023-07-13T18:05:36;4.72;;;1.70;;
20185;SDS011;10252;48.792;8.582;2023-07-13T18:10:38;2.47;;;1.40;;
20185;SDS011;10252;48.792;8.582;2023-07-13T18:15:40;2.97;;;1.70;;
20185;SDS011;10252;48.792;8.582;2023-07-13T18:20:41;3.03;;;1.40;;
20185;SDS011;10252;48.792;8.582;2023-07-13T18:25:44;3.60;;;1.92;;
20185;SDS011;10252;48.792;8.582;2023-07-13T18:30:54;3.28;;;1.30;;
20185;SDS011;10252;48.792;8.582;2023-07-13T18:35:57;5.40;;;2.47;;
20185;SDS011;10252;48.792;8.582;2023-07-13T18:40:59;3.05;;;1.88;;
20185;SDS011;10252;48.792;8.582;2023-07-13T18:46:01;1.80;;;1.25;;
20185;SDS011;10252;48.792;8.582;2023-07-13T18:51:07;3.05;;;1.52;;
20185;SDS011;10252;48.792;8.582;2023-07-13T18:56:10;3.20;;;1.45;;
20185;SDS011;10252;48.792;8.582;2023-07-13T19:01:31;2.00;;;1.50;;
20185;SDS011;10252;48.792;8.582;2023-07-13T19:06:35;2.10;;;1.35;;
20185;SDS011;10252;48.792;8.582;2023-07-13T19:11:37;2.88;;;1.20;;
20185;SDS011;10252;48.792;8.582;2023-07-13T19:16:38;3.58;;;1.63;;
20185;SDS011;10252;48.792;8.582;2023-07-13T19:21:42;3.65;;;1.70;;
20185;SDS011;10252;48.792;8.582;2023-07-13T19:26:45;3.33;;;1.35;;
20185;SDS011;10252;48.792;8.582;2023-07-13T19:31:52;2.58;;;1.50;;
20185;SDS011;10252;48.792;8.582;2023-07-13T19:37:01;2.78;;;1.48;;
20185;SDS011;10252;48.792;8.582;2023-07-13T19:42:25;3.67;;;1.55;;
20185;SDS011;10252;48.792;8.582;2023-07-13T19:47:27;3.55;;;1.70;;
20185;SDS011;10252;48.792;8.582;2023-07-13T19:52:28;3.22;;;1.58;;
20185;SDS011;10252;48.792;8.582;2023-07-13T19:57:30;3.78;;;1.77;;
20185;SDS011;10252;48.792;8.582;2023-07-13T20:02:33;3.65;;;1.80;;
20185;SDS011;10252;48.792;8.582;2023-07-13T20:07:34;4.10;;;1.73;;
20185;SDS011;10252;48.792;8.582;2023-07-13T20:12:39;6.15;;;2.10;;
20185;SDS011;10252;48.792;8.582;2023-07-13T20:17:40;3.42;;;1.50;;
20185;SDS011;10252;48.792;8.582;2023-07-13T20:22:43;2.85;;;1.50;;
20185;SDS011;10252;48.792;8.582;2023-07-13T20:27:45;4.68;;;1.58;;
20185;SDS011;10252;48.792;8.582;2023-07-13T20:32:46;4.82;;;1.67;;
20185;SDS011;10252;48.792;8.582;2023-07-13T20:37:50;3.80;;;1.77;;
20185;SDS011;10252;48.792;8.582;2023-07-13T20:42:51;3.15;;;1.75;;
20185;SDS011;10252;48.792;8.582;2023-07-13T20:47:53;2.55;;;1.60;;
20185;SDS011;10252;48.792;8.582;2023-07-13T20:52:57;6.72;;;2.63;;
20185;SDS011;10252;48.792;8.582;2023-07-13T20:57:59;2.45;;;1.85;;
20185;SDS011;10252;48.792;8.582;2023-07-13T21:03:01;2.70;;;1.85;;
20185;SDS011;10252;48.792;8.582;2023-07-13T21:08:15;3.60;;;1.70;;
20185;SDS011;10252;48.792;8.582;2023-07-13T21:13:19;3.70;;;1.80;;
20185;SDS011;10252;48.792;8.582;2023-07-13T21:18:22;4.00;;;2.25;;
20185;SDS011;10252;48.792;8.582;2023-07-13T21:23:25;4.38;;;2.10;;
20185;SDS011;10252;48.792;8.582;2023-07-13T21:28:28;3.53;;;2.35;;
20185;SDS011;10252;48.792;8.582;2023-07-13T21:33:29;5.97;;;2.00;;
20185;SDS011;10252;48.792;8.582;2023-07-13T21:38:35;5.82;;;1.92;;
20185;SDS011;10252;48.792;8.582;2023-07-13T21:43:38;3.10;;;1.98;;
20185;SDS011;10252;48.792;8.582;2023-07-13T21:48:42;10.23;;;3.58;;
20185;SDS011;10252;48.792;8.582;2023-07-13T21:53:46;3.40;;;1.90;;
20185;SDS011;10252;48.792;8.582;2023-07-13T21:58:48;3.05;;;1.77;;
20185;SDS011;10252;48.792;8.582;2023-07-13T22:03:53;4.57;;;2.42;;
20185;SDS011;10252;48.792;8.582;2023-07-13T22:08:55;2.53;;;2.33;;
20185;SDS011;10252;48.792;8.582;2023-07-13T22:13:59;2.00;;;1.80;;
20185;SDS011;10252;48.792;8.582;2023-07-13T22:19:05;2.45;;;1.98;;
20185;SDS011;10252;48.792;8.582;2023-07-13T22:24:14;4.53;;;2.13;;
20185;SDS011;10252;48.792;8.582;2023-07-13T22:29:21;5.53;;;2.42;;
20185;SDS011;10252;48.792;8.582;2023-07-13T22:34:24;3.35;;;2.08;;
20185;SDS011;10252;48.792;8.582;2023-07-13T22:39:31;4.97;;;2.20;;
20185;SDS011;10252;48.792;8.582;2023-07-13T22:44:32;4.68;;;2.33;;
20185;SDS011;10252;48.792;8.582;2023-07-13T22:49:34;4.65;;;2.28;;
20185;SDS011;10252;48.792;8.582;2023-07-13T22:54:36;3.08;;;2.17;;
20185;SDS011;10252;48.792;8.582;2023-07-13T22:59:38;2.00;;;1.80;;
20185;SDS011;10252;48.792;8.582;2023-07-13T23:04:39;3.47;;;2.45;;
20185;SDS011;10252;48.792;8.582;2023-07-13T23:09:41;3.25;;;2.05;;
20185;SDS011;10252;48.792;8.582;2023-07-13T23:14:47;5.18;;;2.60;;
20185;SDS011;10252;48.792;8.582;2023-07-13T23:19:48;4.15;;;2.20;;
20185;SDS011;10252;48.792;8.582;2023-07-13T23:24:50;2.92;;;2.40;;
20185;SDS011;10252;48.792;8.582;2023-07-13T23:29:52;7.10;;;2.22;;
20185;SDS011;10252;48.792;8.582;2023-07-13T23:34:53;6.13;;;2.40;;
20185;SDS011;10252;48.792;8.582;2023-07-13T23:39:55;5.05;;;2.03;;
20185;SDS011;10252;48.792;8.582;2023-07-13T23:44:56;2.70;;;2.10;;
20185;SDS011;10252;48.792;8.582;2023-07-13T23:49:58;5.97;;;2.13;;
20185;SDS011;10252;48.792;8.582;2023-07-13T23:55:01;3.30;;;2.20;;
